Time;durP1;ratioP1;P1;durP2;ratioP2;P2;SDS_P1;SDS_P2;PMS_P1;PMS_P2;Temp;Humidity;BMP_temperature;BMP_pressure;BME280_temperature;BME280_humidity;BME280_pressure;Samples;Min_cycle;Max_cycle;Signal;HPM_P1;HPM_P2
2024/03/11 00:00:28;;;;;;;6.93;5.28;;;9.00;99.90;;;;;;5073215;28;20104;-62
2024/03/11 00:02:54;;;;;;;16.25;9.93;;;9.00;99.90;;;;;;5060371;28;20571;-55
2024/03/11 00:05:20;;;;;;;28.70;16.10;;;8.90;99.90;;;;;;5054396;28;20032;-55
2024/03/11 00:07:46;;;;;;;5.00;4.18;;;8.90;99.90;;;;;;5054187;28;20100;-56
2024/03/11 00:10:12;;;;;;;3.75;3.15;;;8.90;99.90;;;;;;5054081;28;20453;-55
2024/03/11 00:12:44;;;;;;;3.53;3.22;;;8.90;99.90;;;;;;5053918;28;20414;-54
2024/03/11 00:15:11;;;;;;;3.55;3.08;;;8.80;99.90;;;;;;5069938;28;20032;-54
2024/03/11 00:17:37;;;;;;;3.58;3.28;;;8.80;99.90;;;;;;5054489;28;20032;-56
2024/03/11 00:20:04;;;;;;;3.80;2.85;;;8.70;99.90;;;;;;5053978;28;20033;-56
2024/03/11 00:22:30;;;;;;;5.25;2.88;;;8.70;99.90;;;;;;5054111;28;20059;-54
2024/03/11 00:24:56;;;;;;;3.25;2.58;;;8.70;99.90;;;;;;5053950;28;20602;-53
2024/03/11 00:27:21;;;;;;;2.58;2.05;;;8.80;99.90;;;;;;5069220;28;20083;-59
2024/03/11 00:29:48;;;;;;;6.60;2.88;;;8.70;99.90;;;;;;5053856;28;20021;-60
2024/03/11 00:32:14;;;;;;;3.28;2.53;;;8.70;99.90;;;;;;5053874;28;20032;-56
2024/03/11 00:34:41;;;;;;;4.15;3.75;;;8.70;99.90;;;;;;5068964;28;20143;-59
2024/03/11 00:37:07;;;;;;;5.88;4.57;;;8.70;99.90;;;;;;5053735;28;20396;-54
2024/03/11 00:39:34;;;;;;;4.88;4.22;;;8.60;99.90;;;;;;5053992;28;20112;-58
2024/03/11 00:41:59;;;;;;;5.10;4.53;;;8.60;99.90;;;;;;5053652;28;20033;-55
2024/03/11 00:44:25;;;;;;;5.65;4.53;;;8.60;99.90;;;;;;5053391;28;20360;-56
2024/03/11 00:46:50;;;;;;;5.10;4.60;;;8.60;99.90;;;;;;5053382;28;20029;-55
2024/03/11 00:49:17;;;;;;;5.35;4.45;;;8.60;99.90;;;;;;5068648;28;20538;-60
2024/03/11 00:51:43;;;;;;;5.53;3.78;;;8.50;99.90;;;;;;5068797;28;20037;-58
2024/03/11 00:54:08;;;;;;;3.85;3.25;;;8.50;99.90;;;;;;5053650;28;20021;-56
2024/03/11 00:56:35;;;;;;;4.25;3.83;;;8.50;99.90;;;;;;5053317;28;20031;-58
2024/03/11 00:59:02;;;;;;;5.63;3.78;;;8.50;99.90;;;;;;5068369;28;20032;-57
2024/03/11 01:01:28;;;;;;;4.50;3.17;;;8.40;99.90;;;;;;5053502;28;20028;-58
2024/03/11 01:03:53;;;;;;;3.80;3.13;;;8.50;99.90;;;;;;5052847;28;20033;-54
2024/03/11 01:06:19;;;;;;;5.05;3.33;;;8.40;99.90;;;;;;5053116;28;20496;-58
2024/03/11 01:08:45;;;;;;;5.25;3.40;;;8.40;99.90;;;;;;5052881;28;20468;-58
2024/03/11 01:11:11;;;;;;;3.30;3.00;;;8.40;99.90;;;;;;5051886;28;20116;-59
2024/03/11 01:13:37;;;;;;;4.55;3.00;;;8.40;99.90;;;;;;5053061;28;20512;-59
2024/03/11 01:16:02;;;;;;;5.38;3.55;;;8.40;99.90;;;;;;5068452;28;20401;-54
2024/03/11 01:18:28;;;;;;;4.97;3.47;;;8.40;99.90;;;;;;5068124;28;20032;-58
2024/03/11 01:20:54;;;;;;;3.40;3.10;;;8.40;99.90;;;;;;5052428;28;20017;-51
2024/03/11 01:23:20;;;;;;;3.25;3.00;;;8.30;99.90;;;;;;5052897;28;20025;-57
2024/03/11 01:25:46;;;;;;;3.58;3.28;;;8.30;99.90;;;;;;5052795;28;20032;-59
2024/03/11 01:28:12;;;;;;;3.08;2.78;;;8.30;99.90;;;;;;5052812;28;20087;-54
2024/03/11 01:30:37;;;;;;;2.75;2.55;;;8.30;99.90;;;;;;5052563;28;20032;-60
2024/03/11 01:33:05;;;;;;;2.70;2.50;;;8.30;99.90;;;;;;5052641;28;20382;-55
2024/03/11 01:35:31;;;;;;;3.92;2.92;;;8.30;99.90;;;;;;5052472;28;20017;-58
2024/03/11 01:37:57;;;;;;;2.97;2.78;;;8.40;99.90;;;;;;5067675;28;20469;-53
2024/03/11 01:40:23;;;;;;;4.13;3.47;;;8.30;99.90;;;;;;5052371;28;20381;-57
2024/03/11 01:42:50;;;;;;;4.38;2.85;;;8.40;99.90;;;;;;5052537;28;20103;-58
2024/03/11 01:45:16;;;;;;;2.90;2.70;;;8.40;99.90;;;;;;5067910;28;20466;-58
2024/03/11 01:47:42;;;;;;;3.20;2.80;;;8.40;99.90;;;;;;5052192;28;20021;-57
2024/03/11 01:50:09;;;;;;;3.17;2.97;;;8.40;99.90;;;;;;5052311;28;20024;-58
2024/03/11 01:52:37;;;;;;;3.15;2.88;;;8.40;99.90;;;;;;5052519;28;20052;-58
2024/03/11 01:55:03;;;;;;;2.85;2.65;;;8.40;99.90;;;;;;5052290;28;20021;-57
2024/03/11 01:57:33;;;;;;;3.20;2.90;;;8.40;99.90;;;;;;5051791;28;20067;-60
2024/03/11 01:59:58;;;;;;;3.15;2.85;;;8.40;99.90;;;;;;5067721;28;20428;-56
2024/03/11 02:02:24;;;;;;;4.47;3.15;;;8.40;99.90;;;;;;5067168;28;20025;-56
2024/03/11 02:04:50;;;;;;;3.33;3.03;;;8.40;99.90;;;;;;5067463;28;20186;-55
2024/03/11 02:07:17;;;;;;;6.47;4.32;;;8.40;99.90;;;;;;5051843;28;20025;-58
2024/03/11 02:09:43;;;;;;;4.10;3.63;;;8.30;99.90;;;;;;5067356;28;20223;-56
2024/03/11 02:12:14;;;;;;;4.78;4.28;;;8.30;99.90;;;;;;5052166;28;20494;-57
2024/03/11 02:14:40;;;;;;;6.45;4.22;;;8.20;99.90;;;;;;5067524;28;20029;-57
2024/03/11 02:17:06;;;;;;;5.50;5.00;;;8.30;99.90;;;;;;5051831;28;20151;-58
2024/03/11 02:19:33;;;;;;;5.47;4.80;;;8.30;99.90;;;;;;5051822;28;20021;-56
2024/03/11 02:22:03;;;;;;;5.47;4.90;;;8.30;99.90;;;;;;5051935;28;20036;-58
2024/03/11 02:24:28;;;;;;;7.15;5.72;;;8.20;99.90;;;;;;5051923;28;20021;-57
2024/03/11 02:26:54;;;;;;;6.15;5.20;;;8.30;99.90;;;;;;5051788;28;20025;-56
2024/03/11 02:29:20;;;;;;;5.88;4.45;;;8.20;99.90;;;;;;5066870;28;20021;-61
2024/03/11 02:31:47;;;;;;;6.95;5.15;;;8.20;99.90;;;;;;5051564;28;20039;-59
2024/03/11 02:34:14;;;;;;;5.45;4.90;;;8.20;99.90;;;;;;5050329;28;20029;-56
2024/03/11 02:36:46;;;;;;;12.43;5.72;;;8.30;99.90;;;;;;5066789;28;20036;-54
2024/03/11 02:39:14;;;;;;;7.95;5.75;;;8.20;99.90;;;;;;5066829;28;20451;-57
2024/03/11 02:41:43;;;;;;;6.05;5.45;;;8.30;99.90;;;;;;5051742;28;20092;-57
2024/03/11 02:44:13;;;;;;;7.43;5.40;;;8.20;99.90;;;;;;5051475;28;20100;-58
2024/03/11 02:46:42;;;;;;;8.05;6.28;;;8.30;99.90;;;;;;5051398;28;20033;-58
2024/03/11 02:49:08;;;;;;;6.22;5.45;;;8.30;99.90;;;;;;5066738;28;20053;-57
2024/03/11 02:51:34;;;;;;;6.20;4.85;;;8.30;99.90;;;;;;5051475;28;20033;-56
2024/03/11 02:53:59;;;;;;;5.97;5.38;;;8.30;99.90;;;;;;5051378;28;20396;-58
2024/03/11 02:56:25;;;;;;;6.10;5.50;;;8.30;99.90;;;;;;5051407;28;20495;-57
2024/03/11 02:58:51;;;;;;;6.07;5.32;;;8.30;99.90;;;;;;5066487;28;20040;-57
2024/03/11 03:01:17;;;;;;;8.50;5.80;;;8.30;99.90;;;;;;5051346;28;20029;-57
2024/03/11 03:03:47;;;;;;;6.80;6.10;;;8.30;99.90;;;;;;5066444;28;20025;-55
2024/03/11 03:06:16;;;;;;;7.57;5.38;;;8.30;99.90;;;;;;5050828;28;20029;-59
2024/03/11 03:08:43;;;;;;;5.18;4.68;;;8.30;99.90;;;;;;5051119;28;20029;-56
2024/03/11 03:11:08;;;;;;;8.27;6.68;;;8.30;99.90;;;;;;5051287;28;20207;-58
2024/03/11 03:13:35;;;;;;;6.10;5.50;;;8.30;99.90;;;;;;5051075;28;20017;-54
2024/03/11 03:16:00;;;;;;;6.07;5.47;;;8.40;99.90;;;;;;5066582;28;20036;-57
2024/03/11 03:18:26;;;;;;;6.45;5.30;;;8.40;99.90;;;;;;5051096;28;20033;-57
2024/03/11 03:20:51;;;;;;;7.78;5.10;;;8.40;99.90;;;;;;5051222;28;20083;-60
2024/03/11 03:23:17;;;;;;;6.45;5.35;;;8.40;99.90;;;;;;5051205;28;20029;-55
2024/03/11 03:25:43;;;;;;;7.05;5.18;;;8.40;99.90;;;;;;5051362;28;20445;-58
2024/03/11 03:28:08;;;;;;;6.80;6.00;;;8.40;99.90;;;;;;5050943;28;20028;-55
2024/03/11 03:30:35;;;;;;;7.18;5.20;;;8.30;99.90;;;;;;5051018;28;20484;-59
2024/03/11 03:33:01;;;;;;;7.60;5.72;;;8.40;99.90;;;;;;5051017;28;20109;-55
2024/03/11 03:35:26;;;;;;;5.80;5.18;;;8.40;99.90;;;;;;5066347;28;20025;-55
2024/03/11 03:37:54;;;;;;;7.22;5.22;;;8.40;99.90;;;;;;5066332;28;20116;-58
2024/03/11 03:40:21;;;;;;;6.63;5.10;;;8.40;99.90;;;;;;5050590;28;20417;-57
2024/03/11 03:42:48;;;;;;;7.53;4.80;;;8.30;99.90;;;;;;5066443;28;20373;-56
2024/03/11 03:45:15;;;;;;;4.70;4.22;;;8.30;99.90;;;;;;5050963;28;20646;-57
2024/03/11 03:47:41;;;;;;;4.68;4.20;;;8.30;99.90;;;;;;5050957;28;20377;-54
2024/03/11 03:50:10;;;;;;;6.13;4.00;;;8.30;99.90;;;;;;5050848;28;20155;-57
2024/03/11 03:52:42;;;;;;;4.03;3.55;;;8.20;99.90;;;;;;5066290;28;20024;-58
2024/03/11 03:55:11;;;;;;;3.85;3.45;;;8.20;99.90;;;;;;5050876;28;20508;-58
2024/03/11 03:57:43;;;;;;;3.25;2.95;;;8.20;99.90;;;;;;5050787;28;20033;-55
2024/03/11 04:00:15;;;;;;;4.05;3.00;;;8.10;99.90;;;;;;5068124;28;20021;-57
2024/03/11 04:02:47;;;;;;;4.13;2.83;;;8.10;99.90;;;;;;5054287;28;20103;-58
2024/03/11 04:05:13;;;;;;;8.68;2.90;;;8.10;99.90;;;;;;5069714;28;20639;-56
2024/03/11 04:07:42;;;;;;;4.07;2.65;;;8.10;99.90;;;;;;5069469;28;20032;-60
2024/03/11 04:10:18;;;;;;;6.65;2.80;;;8.10;99.90;;;;;;5054098;28;20104;-58
2024/03/11 04:12:47;;;;;;;3.75;2.97;;;8.10;99.90;;;;;;5054263;28;20489;-58
2024/03/11 04:15:17;;;;;;;3.03;2.70;;;8.20;99.90;;;;;;5053916;28;20100;-58
2024/03/11 04:17:47;;;;;;;2.50;2.30;;;8.20;99.90;;;;;;5069376;28;20143;-56
2024/03/11 04:20:14;;;;;;;3.85;2.78;;;8.20;99.90;;;;;;5053961;28;20380;-55
2024/03/11 04:22:43;;;;;;;3.40;3.10;;;8.10;99.90;;;;;;5054030;28;20095;-56
2024/03/11 04:25:19;;;;;;;3.75;3.03;;;8.10;99.90;;;;;;5054080;28;20095;-52
2024/03/11 04:27:47;;;;;;;4.10;3.72;;;8.10;99.90;;;;;;5069230;28;20060;-57
2024/03/11 04:30:17;;;;;;;7.85;4.47;;;8.10;99.90;;;;;;5053720;28;20017;-53
2024/03/11 04:32:43;;;;;;;6.03;5.05;;;8.10;99.90;;;;;;5069401;28;20112;-55
2024/03/11 04:35:10;;;;;;;7.13;5.15;;;8.10;99.90;;;;;;5054203;28;20025;-56
2024/03/11 04:37:38;;;;;;;6.97;4.93;;;8.10;99.90;;;;;;5054091;28;20033;-56
2024/03/11 04:40:06;;;;;;;6.90;5.45;;;8.10;99.90;;;;;;5053773;28;20028;-59
2024/03/11 04:42:32;;;;;;;6.50;4.78;;;8.10;99.90;;;;;;5053931;28;20032;-59
2024/03/11 04:44:57;;;;;;;4.85;4.35;;;8.10;99.90;;;;;;5053952;28;20120;-57
2024/03/11 04:47:23;;;;;;;6.10;5.43;;;8.10;99.90;;;;;;5053542;28;20485;-60
2024/03/11 04:49:49;;;;;;;7.55;5.07;;;8.10;99.90;;;;;;5053774;28;20032;-59
2024/03/11 04:52:16;;;;;;;7.57;5.20;;;8.10;99.90;;;;;;5053338;28;20021;-54
2024/03/11 04:54:41;;;;;;;7.78;4.90;;;8.10;99.90;;;;;;5053718;28;20024;-56
2024/03/11 04:57:07;;;;;;;5.10;4.60;;;8.10;99.90;;;;;;5053622;28;20036;-58
2024/03/11 04:59:32;;;;;;;7.75;5.63;;;8.10;99.90;;;;;;5054127;28;20503;-56
2024/03/11 05:01:58;;;;;;;5.50;4.68;;;8.10;99.90;;;;;;5068835;28;20032;-55
2024/03/11 05:04:24;;;;;;;4.93;4.47;;;8.20;99.90;;;;;;5053764;28;20032;-56
2024/03/11 05:06:49;;;;;;;5.55;4.18;;;8.20;99.90;;;;;;5068574;28;20025;-56
2024/03/11 05:09:15;;;;;;;4.93;4.50;;;8.20;99.90;;;;;;5053194;28;20024;-55
2024/03/11 05:11:40;;;;;;;5.45;4.53;;;8.20;99.90;;;;;;5052309;28;20025;-58
2024/03/11 05:14:06;;;;;;;8.10;4.38;;;8.20;99.90;;;;;;5053230;28;20029;-55
2024/03/11 05:16:32;;;;;;;5.57;4.22;;;8.20;99.90;;;;;;5052987;28;20025;-60
2024/03/11 05:18:58;;;;;;;4.63;4.22;;;8.30;99.90;;;;;;5052910;28;20041;-58
2024/03/11 05:21:25;;;;;;;5.05;4.47;;;8.20;99.90;;;;;;5052949;28;20059;-61
2024/03/11 05:23:50;;;;;;;5.03;4.55;;;8.30;99.90;;;;;;5052925;28;20021;-55
2024/03/11 05:26:18;;;;;;;5.43;4.75;;;8.30;99.90;;;;;;5052645;28;20037;-59
2024/03/11 05:28:44;;;;;;;4.82;4.43;;;8.30;99.90;;;;;;5052761;28;20396;-54
2024/03/11 05:31:11;;;;;;;5.38;4.88;;;8.30;99.90;;;;;;5052841;28;20029;-56
2024/03/11 05:33:36;;;;;;;6.70;5.82;;;8.30;99.90;;;;;;5052852;28;20013;-60
2024/03/11 05:36:02;;;;;;;8.68;5.32;;;8.40;99.90;;;;;;5052707;28;20040;-58
2024/03/11 05:38:28;;;;;;;6.88;6.15;;;8.30;99.90;;;;;;5052558;28;20037;-58
2024/03/11 05:40:53;;;;;;;6.38;5.72;;;8.30;99.90;;;;;;5052916;28;20016;-59
2024/03/11 05:43:19;;;;;;;7.82;6.40;;;8.30;99.90;;;;;;5052719;28;20032;-60
2024/03/11 05:45:47;;;;;;;8.77;6.90;;;8.30;99.90;;;;;;5052497;28;20052;-56
2024/03/11 05:48:13;;;;;;;9.35;7.50;;;8.30;99.90;;;;;;5052261;28;20060;-60
2024/03/11 05:50:38;;;;;;;10.02;7.10;;;8.30;99.90;;;;;;5052244;28;20071;-59
2024/03/11 05:53:05;;;;;;;9.35;8.45;;;8.30;99.90;;;;;;5052455;28;20195;-56
2024/03/11 05:55:34;;;;;;;10.52;7.43;;;8.40;99.90;;;;;;5052221;28;20064;-58
2024/03/11 05:58:08;;;;;;;9.68;7.47;;;8.40;99.90;;;;;;5052674;28;20039;-59
2024/03/11 06:00:34;;;;;;;11.68;8.23;;;8.40;99.90;;;;;;5067141;28;20021;-59
2024/03/11 06:03:00;;;;;;;9.48;7.78;;;8.40;99.90;;;;;;5052143;28;20025;-54
2024/03/11 06:05:25;;;;;;;10.48;8.55;;;8.40;99.90;;;;;;5051953;28;20021;-61
2024/03/11 06:07:51;;;;;;;9.15;7.97;;;8.40;99.90;;;;;;5067196;28;20033;-57
2024/03/11 06:10:17;;;;;;;9.20;8.18;;;8.40;99.90;;;;;;5051733;28;20017;-54
2024/03/11 06:12:43;;;;;;;10.10;8.32;;;8.50;99.90;;;;;;5051894;28;20545;-59
2024/03/11 06:15:09;;;;;;;10.73;8.77;;;8.40;99.90;;;;;;5051800;28;20507;-57
2024/03/11 06:17:35;;;;;;;9.15;8.20;;;8.40;99.90;;;;;;5051629;28;20036;-55
2024/03/11 06:20:04;;;;;;;12.68;8.48;;;8.50;99.90;;;;;;5051676;28;20028;-58
2024/03/11 06:22:30;;;;;;;11.60;8.48;;;8.50;99.90;;;;;;5051411;28;20027;-59
2024/03/11 06:24:58;;;;;;;11.73;8.80;;;8.40;99.90;;;;;;5051564;28;20032;-60
2024/03/11 06:27:24;;;;;;;11.23;8.52;;;8.50;99.90;;;;;;5066720;28;20412;-54
2024/03/11 06:29:49;;;;;;;10.07;8.60;;;8.50;99.90;;;;;;5066949;28;20052;-56
2024/03/11 06:32:16;;;;;;;10.73;8.38;;;8.40;99.90;;;;;;5051697;28;20052;-54
2024/03/11 06:34:41;;;;;;;10.70;8.00;;;8.50;99.90;;;;;;5051701;28;20100;-51
2024/03/11 06:37:07;;;;;;;9.40;8.38;;;8.50;99.90;;;;;;5051534;28;20144;-52
2024/03/11 06:39:33;;;;;;;8.57;7.63;;;8.50;99.90;;;;;;5051348;28;20385;-53
2024/03/11 06:41:59;;;;;;;8.10;7.20;;;8.50;99.90;;;;;;5051481;28;20033;-56
2024/03/11 06:44:24;;;;;;;8.88;7.95;;;8.50;99.90;;;;;;5051513;28;20397;-52
2024/03/11 06:46:51;;;;;;;8.95;7.50;;;8.50;99.90;;;;;;5051246;28;20032;-57
2024/03/11 06:49:17;;;;;;;8.75;7.65;;;8.50;99.90;;;;;;5051331;28;20032;-57
2024/03/11 06:51:42;;;;;;;9.43;7.13;;;8.50;99.90;;;;;;5066949;28;20017;-57
2024/03/11 06:54:08;;;;;;;10.55;7.78;;;8.50;99.90;;;;;;5051578;28;20036;-59
2024/03/11 06:56:33;;;;;;;8.52;7.72;;;8.50;99.90;;;;;;5066610;28;20021;-60
2024/03/11 06:58:59;;;;;;;10.48;7.47;;;8.60;99.90;;;;;;5051074;28;20097;-59
2024/03/11 07:01:29;;;;;;;9.95;8.95;;;8.60;99.90;;;;;;5051412;28;20119;-58
2024/03/11 07:03:55;;;;;;;10.77;8.02;;;8.60;99.90;;;;;;5050749;28;20513;-54
2024/03/11 07:06:22;;;;;;;9.10;7.97;;;8.60;99.90;;;;;;5051046;28;20032;-57
2024/03/11 07:08:49;;;;;;;8.68;7.78;;;8.60;99.90;;;;;;5051115;28;20051;-61
2024/03/11 07:11:15;;;;;;;13.13;8.52;;;8.70;99.90;;;;;;5051253;28;20021;-59
2024/03/11 07:13:42;;;;;;;11.13;7.78;;;8.70;99.90;;;;;;5051137;28;20392;-57
2024/03/11 07:16:09;;;;;;;10.82;8.15;;;8.70;99.90;;;;;;5066578;28;20572;-63
2024/03/11 07:18:35;;;;;;;8.75;7.90;;;8.80;99.90;;;;;;5051115;28;20036;-56
2024/03/11 07:21:05;;;;;;;9.73;8.73;;;8.80;99.90;;;;;;5051364;28;20021;-57
2024/03/11 07:23:33;;;;;;;10.38;8.20;;;8.80;99.90;;;;;;5051261;28;20017;-59
2024/03/11 07:26:00;;;;;;;10.75;9.00;;;8.80;99.90;;;;;;5051072;28;20518;-59
2024/03/11 07:28:26;;;;;;;11.30;8.25;;;8.80;99.90;;;;;;5050881;28;20063;-61
2024/03/11 07:30:55;;;;;;;14.00;9.18;;;8.80;99.90;;;;;;5051288;28;20021;-58
2024/03/11 07:33:22;;;;;;;8.63;7.72;;;8.80;99.90;;;;;;5066480;28;20091;-59
2024/03/11 07:35:50;;;;;;;12.23;8.95;;;8.80;99.90;;;;;;5069828;28;20029;-54
2024/03/11 07:38:16;;;;;;;10.18;8.10;;;8.90;99.90;;;;;;5061808;28;20029;-54
2024/03/11 07:40:41;;;;;;;12.70;8.50;;;8.90;99.90;;;;;;5063788;28;20025;-63
2024/03/11 07:43:07;;;;;;;11.85;8.38;;;8.90;99.90;;;;;;5054368;28;20021;-63
2024/03/11 07:45:37;;;;;;;10.82;8.70;;;8.90;99.90;;;;;;5054287;28;20021;-62
2024/03/11 07:48:06;;;;;;;12.48;8.80;;;9.00;99.90;;;;;;5056000;28;20017;-63
2024/03/11 07:50:32;;;;;;;11.05;8.82;;;9.00;99.90;;;;;;5066531;28;20433;-63
2024/03/11 07:52:58;;;;;;;9.48;8.48;;;9.00;99.90;;;;;;5073927;28;20021;-62
2024/03/11 07:55:24;;;;;;;9.77;8.77;;;9.00;99.90;;;;;;5058212;28;20028;-64
2024/03/11 07:57:53;;;;;;;12.82;8.52;;;9.00;99.90;;;;;;5063700;28;20037;-54
2024/03/11 08:00:20;;;;;;;10.55;8.45;;;9.00;99.90;;;;;;5059145;28;20399;-56
2024/03/11 08:02:49;;;;;;;10.77;8.75;;;9.10;99.90;;;;;;5074395;28;20040;-57
2024/03/11 08:05:17;;;;;;;11.32;8.40;;;9.00;99.90;;;;;;5062229;28;20488;-54
2024/03/11 08:07:45;;;;;;;10.38;8.50;;;9.10;99.90;;;;;;5054160;28;20527;-54
2024/03/11 08:10:12;;;;;;;10.52;9.15;;;9.20;99.90;;;;;;5054494;28;20032;-51
2024/03/11 08:12:44;;;;;;;13.90;8.98;;;9.20;99.90;;;;;;5054216;28;20404;-57
2024/03/11 08:15:12;;;;;;;11.45;9.23;;;9.10;99.90;;;;;;5054572;28;20089;-50
2024/03/11 08:17:39;;;;;;;9.68;8.57;;;9.20;99.90;;;;;;5066703;28;20029;-55
2024/03/11 08:20:08;;;;;;;10.63;9.30;;;9.20;99.90;;;;;;5074207;28;20081;-59
2024/03/11 08:22:45;;;;;;;12.45;8.52;;;9.20;99.90;;;;;;5074106;28;20101;-55
2024/03/11 08:25:15;;;;;;;10.82;8.93;;;9.20;99.90;;;;;;5074133;28;20016;-54
2024/03/11 08:27:40;;;;;;;10.85;9.27;;;9.30;99.90;;;;;;5073822;28;20348;-57
2024/03/11 08:30:09;;;;;;;11.05;9.27;;;9.20;99.90;;;;;;5073852;28;20020;-57
2024/03/11 08:32:35;;;;;;;10.43;8.23;;;9.30;99.90;;;;;;5073892;28;20024;-61
2024/03/11 08:35:01;;;;;;;10.15;8.10;;;9.30;99.90;;;;;;5072573;28;20438;-61
2024/03/11 08:37:27;;;;;;;10.07;8.30;;;9.30;99.90;;;;;;5073592;28;20020;-59
2024/03/11 08:39:53;;;;;;;10.27;7.93;;;9.20;99.90;;;;;;5073506;28;20021;-59
2024/03/11 08:42:21;;;;;;;9.25;8.32;;;9.20;99.90;;;;;;5073662;28;20653;-53
2024/03/11 08:44:50;;;;;;;9.70;8.70;;;9.20;99.90;;;;;;5074161;28;20020;-56
2024/03/11 08:47:16;;;;;;;10.35;8.38;;;9.20;99.90;;;;;;5073247;28;20021;-56
2024/03/11 08:49:44;;;;;;;10.43;8.57;;;9.30;99.90;;;;;;5073305;28;20025;-60
2024/03/11 08:52:12;;;;;;;12.55;9.15;;;9.30;99.90;;;;;;5073344;28;20029;-59
2024/03/11 08:54:40;;;;;;;10.13;7.47;;;9.30;99.90;;;;;;5055537;28;20025;-59
2024/03/11 08:57:05;;;;;;;12.90;9.25;;;9.30;99.90;;;;;;5053160;28;20028;-52
2024/03/11 08:59:31;;;;;;;9.63;8.27;;;9.40;99.90;;;;;;5053272;28;20036;-53
2024/03/11 09:01:57;;;;;;;10.43;8.52;;;9.50;99.90;;;;;;5052045;28;20503;-55
2024/03/11 09:04:26;;;;;;;9.82;8.57;;;9.60;99.90;;;;;;5053197;28;20106;-53
2024/03/11 09:06:54;;;;;;;10.88;8.90;;;9.70;99.90;;;;;;5052832;28;20108;-59
2024/03/11 09:09:24;;;;;;;12.38;8.18;;;9.70;99.90;;;;;;5052010;28;20106;-59
2024/03/11 09:11:56;;;;;;;8.93;7.93;;;9.80;99.90;;;;;;5053087;28;20306;-57
2024/03/11 09:14:28;;;;;;;12.38;8.30;;;9.90;99.90;;;;;;5052988;28;20058;-59
2024/03/11 09:17:00;;;;;;;9.93;8.13;;;9.90;99.90;;;;;;5051693;28;20438;-58
2024/03/11 09:19:27;;;;;;;11.63;7.85;;;9.90;99.90;;;;;;5051571;28;20396;-59
2024/03/11 09:21:54;;;;;;;9.18;7.68;;;10.00;99.90;;;;;;5052785;28;20029;-59
2024/03/11 09:24:20;;;;;;;9.82;8.07;;;10.10;99.90;;;;;;5054187;28;20029;-61
2024/03/11 09:26:49;;;;;;;13.23;8.65;;;10.10;99.90;;;;;;5052534;28;20027;-54
2024/03/11 09:29:15;;;;;;;11.30;8.48;;;10.20;99.90;;;;;;5051266;28;20488;-59
2024/03/11 09:31:42;;;;;;;10.52;9.43;;;10.10;99.90;;;;;;5052538;28;20488;-58
2024/03/11 09:34:08;;;;;;;11.35;9.48;;;10.20;99.90;;;;;;5069435;28;20271;-59
2024/03/11 09:36:35;;;;;;;12.75;10.02;;;10.30;99.90;;;;;;5053399;28;20116;-57
2024/03/11 09:39:02;;;;;;;12.95;9.50;;;10.40;99.90;;;;;;5052094;28;20032;-59
2024/03/11 09:41:37;;;;;;;11.68;10.07;;;10.50;99.90;;;;;;5055651;28;20033;-58
2024/03/11 09:44:04;;;;;;;;;;;10.70;99.90;;;;;;5057986;28;20032;-57
2024/03/11 09:46:31;;;;;;;11.23;9.35;;;11.00;99.90;;;;;;5051301;28;19912;-61
2024/03/11 09:48:57;;;;;;;10.73;8.50;;;11.30;99.90;;;;;;5053293;28;20025;-58
2024/03/11 09:51:23;;;;;;;12.27;8.75;;;11.60;99.90;;;;;;5067042;28;20044;-58
2024/03/11 09:53:53;;;;;;;11.70;9.30;;;11.90;99.90;;;;;;5072369;28;20116;-56
2024/03/11 09:56:22;;;;;;;9.63;7.68;;;12.20;99.90;;;;;;5053687;28;20032;-59
2024/03/11 09:58:58;;;;;;;9.75;7.80;;;12.50;99.90;;;;;;5052806;28;20029;-55
2024/03/11 10:01:30;;;;;;;8.07;7.28;;;12.50;99.90;;;;;;5062737;28;20076;-58
2024/03/11 10:03:57;;;;;;;9.73;8.23;;;12.30;99.90;;;;;;5072138;28;20036;-57
2024/03/11 10:06:24;;;;;;;9.23;7.28;;;12.20;99.90;;;;;;5053813;28;20449;-60
2024/03/11 10:08:49;;;;;;;7.85;7.05;;;12.30;99.90;;;;;;5051983;28;20052;-56
2024/03/11 10:11:28;;;;;;;8.98;6.35;;;12.50;99.90;;;;;;5054401;28;20049;-61
2024/03/11 10:13:56;;;;;;;14.35;11.85;;;12.80;99.90;;;;;;5055544;28;20487;-60
2024/03/11 10:16:26;;;;;;;13.68;11.00;;;13.10;99.90;;;;;;5058877;28;20044;-60
2024/03/11 10:19:11;;;;;;;43.65;25.02;;;13.40;99.90;;;;;;5052953;28;20032;-63
2024/03/11 10:21:41;;;;;;;8.88;7.30;;;13.80;99.90;;;;;;5055133;28;20028;-55
2024/03/11 10:24:10;;;;;;;6.15;4.97;;;14.30;99.90;;;;;;5052659;28;20032;-60
2024/03/11 10:26:42;;;;;;;6.07;5.47;;;14.50;99.90;;;;;;5065741;28;20475;-61
2024/03/11 10:29:09;;;;;;;5.95;5.30;;;14.60;99.90;;;;;;5052621;28;20021;-62
2024/03/11 10:31:37;;;;;;;5.65;4.82;;;14.60;99.90;;;;;;5050522;28;20021;-55
2024/03/11 10:34:10;;;;;;;6.00;5.40;;;14.50;99.90;;;;;;5077681;28;20028;-59
2024/03/11 10:36:39;;;;;;;4.93;4.43;;;14.30;99.90;;;;;;5091325;28;20028;-64
2024/03/11 10:39:18;;;;;;;5.88;4.88;;;14.30;99.90;;;;;;5051464;28;20115;-62
2024/03/11 10:41:43;;;;;;;5.03;4.53;;;14.20;99.90;;;;;;5064994;28;20246;-62
2024/03/11 10:44:15;;;;;;;7.10;5.43;;;13.90;99.90;;;;;;5052404;28;20053;-62
2024/03/11 10:46:42;;;;;;;5.55;5.05;;;13.70;99.90;;;;;;5059955;28;20029;-63
2024/03/11 10:49:12;;;;;;;5.28;4.78;;;13.50;99.90;;;;;;5060287;28;20642;-64
2024/03/11 10:51:45;;;;;;;5.70;4.18;;;13.70;99.90;;;;;;5060759;28;20033;-59
2024/03/11 10:54:22;;;;;;;4.72;4.32;;;13.80;99.90;;;;;;5062052;28;20067;-61
2024/03/11 10:56:57;;;;;;;4.70;4.20;;;13.70;99.90;;;;;;5059677;28;20032;-63
2024/03/11 10:59:29;;;;;;;4.35;4.05;;;13.80;99.90;;;;;;5060587;28;20032;-57
2024/03/11 11:01:57;;;;;;;4.38;3.97;;;13.70;99.90;;;;;;5057832;28;20415;-57
2024/03/11 11:04:28;;;;;;;5.10;4.10;;;13.90;99.90;;;;;;5048645;28;20021;-58
2024/03/11 11:06:58;;;;;;;4.93;3.63;;;14.00;99.90;;;;;;5048701;28;20181;-58
2024/03/11 11:09:27;;;;;;;4.10;3.42;;;14.20;99.90;;;;;;5061935;28;20032;-59
2024/03/11 11:11:54;;;;;;;3.97;3.67;;;14.00;99.90;;;;;;5063914;28;20503;-54
2024/03/11 11:14:27;;;;;;;5.20;4.13;;;13.70;99.90;;;;;;5063058;28;20037;-54
2024/03/11 11:16:55;;;;;;;5.43;4.35;;;13.50;99.90;;;;;;5063130;28;20032;-59
2024/03/11 11:19:28;;;;;;;6.65;4.65;;;13.30;99.90;;;;;;5065182;28;20104;-54
2024/03/11 11:21:54;;;;;;;5.95;4.32;;;13.20;99.90;;;;;;5064349;28;20541;-57
2024/03/11 11:24:39;;;;;;;6.80;4.28;;;13.20;99.90;;;;;;5063861;28;20044;-53
2024/03/11 11:27:06;;;;;;;7.35;4.72;;;13.20;99.90;;;;;;5065357;28;20021;-60
2024/03/11 11:29:33;;;;;;;4.43;3.97;;;13.30;99.90;;;;;;5062040;28;20031;-61
2024/03/11 11:32:03;;;;;;;5.63;4.07;;;13.10;99.90;;;;;;5054218;28;20051;-60
2024/03/11 11:34:48;;;;;;;48.38;28.55;;;13.00;99.90;;;;;;5052591;28;20108;-61
2024/03/11 11:37:19;;;;;;;11.25;6.95;;;13.10;99.90;;;;;;5053119;28;20017;-61
2024/03/11 11:39:46;;;;;;;8.23;4.10;;;13.00;99.90;;;;;;5053298;28;20021;-61
2024/03/11 11:42:39;;;;;;;4.55;3.97;;;12.90;99.90;;;;;;5053621;28;20036;-60
2024/03/11 11:45:11;;;;;;;3.90;3.28;;;12.90;99.90;;;;;;5049490;28;20041;-62
2024/03/11 11:47:43;;;;;;;3.97;3.42;;;13.10;99.90;;;;;;5054764;28;20029;-61
2024/03/11 11:50:28;;;;;;;5.05;3.80;;;13.20;99.90;;;;;;5053642;28;20024;-61
2024/03/11 11:53:04;;;;;;;3.70;3.50;;;13.20;99.90;;;;;;5053625;28;20508;-59
2024/03/11 11:55:29;;;;;;;3.92;3.53;;;13.30;99.90;;;;;;5054689;28;20021;-61
2024/03/11 11:58:08;;;;;;;4.32;3.90;;;13.40;99.90;;;;;;5068483;23;20049;-49
2024/03/11 12:00:43;;;;;;;4.18;3.88;;;13.40;99.90;;;;;;5034057;28;20021;-48
2024/03/11 12:03:28;;;;;;;4.85;4.35;;;13.30;99.90;;;;;;5034572;28;20396;-52
2024/03/11 12:06:02;;;;;;;5.88;5.28;;;13.20;99.90;;;;;;5016263;28;20420;-49
2024/03/11 12:08:29;;;;;;;5.45;4.78;;;13.20;99.90;;;;;;5034299;28;20021;-54
2024/03/11 12:11:15;;;;;;;5.68;4.90;;;13.10;99.90;;;;;;5033727;28;20028;-52
2024/03/11 12:13:42;;;;;;;5.38;4.80;;;13.00;99.90;;;;;;5035422;28;20045;-57
2024/03/11 12:16:10;;;;;;;5.95;4.93;;;12.90;99.90;;;;;;5035449;28;20033;-56
2024/03/11 12:18:39;;;;;;;6.25;4.82;;;12.90;99.90;;;;;;5035233;28;20029;-55
2024/03/11 12:21:11;;;;;;;5.82;5.05;;;13.00;99.90;;;;;;5034653;28;20030;-54
2024/03/11 12:23:37;;;;;;;5.00;4.60;;;13.10;99.90;;;;;;5035310;28;20070;-50
2024/03/11 12:26:03;;;;;;;7.80;5.03;;;13.10;99.90;;;;;;5034340;28;20029;-49
2024/03/11 12:28:29;;;;;;;6.15;4.90;;;13.20;99.90;;;;;;5032493;28;20064;-50
2024/03/11 12:30:55;;;;;;;8.27;4.15;;;13.10;99.90;;;;;;5033494;28;20112;-50
2024/03/11 12:33:23;;;;;;;3.65;3.35;;;13.20;99.90;;;;;;5033373;28;20433;-50
2024/03/11 12:35:51;;;;;;;3.10;2.90;;;13.20;99.90;;;;;;5033021;28;20474;-46
2024/03/11 12:38:17;;;;;;;3.85;2.95;;;13.40;99.90;;;;;;5030169;28;20030;-44
2024/03/11 12:40:44;;;;;;;2.70;2.50;;;13.40;99.90;;;;;;5035908;28;20113;-48
2024/03/11 12:43:21;;;;;;;3.22;2.92;;;13.40;99.90;;;;;;5038354;28;20064;-51
2024/03/11 12:46:00;;;;;;;3.00;2.58;;;13.40;99.90;;;;;;5029771;28;20018;-49
2024/03/11 12:48:28;;;;;;;2.72;2.30;;;13.40;99.90;;;;;;5032048;28;20026;-46
2024/03/11 12:50:56;;;;;;;4.38;2.53;;;13.40;99.90;;;;;;5032950;28;20033;-43
2024/03/11 12:53:24;;;;;;;3.05;2.85;;;13.30;99.90;;;;;;5033548;28;20021;-44
2024/03/11 12:56:00;;;;;;;2.70;2.50;;;13.30;99.90;;;;;;5040195;28;20063;-50